createdAt,value
2019-02-19T00:00:29.217Z,24.40
2019-02-19T00:01:03.155Z,24.30
2019-02-19T00:01:36.346Z,24.25
2019-02-19T00:02:10.835Z,23.98
2019-02-19T00:02:43.894Z,24.25
2019-02-19T00:03:16.762Z,24.05
2019-02-19T00:03:51.456Z,24.00
2019-02-19T00:04:24.338Z,24.27
2019-02-19T00:04:57.262Z,24.00
2019-02-19T00:05:30.154Z,24.00
2019-02-19T00:06:03.246Z,23.62
2019-02-19T00:06:36.236Z,23.95
2019-02-19T00:07:09.351Z,24.00
2019-02-19T00:07:42.336Z,23.92
2019-02-19T00:08:15.247Z,23.98
2019-02-19T00:08:48.142Z,23.62
2019-02-19T00:09:21.148Z,23.50
2019-02-19T00:09:53.937Z,23.95
2019-02-19T00:10:26.946Z,23.60
2019-02-19T00:10:59.948Z,23.70
2019-02-19T00:11:32.848Z,23.50
2019-02-19T00:12:05.854Z,23.60
2019-02-19T00:12:38.924Z,23.55
2019-02-19T00:13:11.813Z,23.47
2019-02-19T00:13:44.866Z,23.55
2019-02-19T00:14:17.882Z,23.30
2019-02-19T00:14:50.904Z,23.30
2019-02-19T00:15:24.003Z,23.70
2019-02-19T00:15:56.938Z,23.35
2019-02-19T00:16:29.955Z,23.00
2019-02-19T00:17:04.495Z,23.10
2019-02-19T00:17:37.481Z,23.18
2019-02-19T00:18:10.303Z,23.60
2019-02-19T00:18:43.390Z,23.30
2019-02-19T00:19:16.232Z,23.10
2019-02-19T00:19:49.235Z,23.20
2019-02-19T00:20:22.050Z,23.02
2019-02-19T00:20:55.053Z,22.90
2019-02-19T00:21:28.096Z,22.80
2019-02-19T00:22:01.012Z,22.80
2019-02-19T00:22:33.971Z,22.82
2019-02-19T00:23:06.851Z,23.15
2019-02-19T00:23:39.767Z,23.25
2019-02-19T00:24:12.769Z,23.10
2019-02-19T00:24:45.882Z,23.20
2019-02-19T00:25:18.787Z,23.07
2019-02-19T00:25:51.720Z,23.22
2019-02-19T00:26:24.606Z,23.10
2019-02-19T00:26:57.668Z,23.35
2019-02-19T00:27:30.570Z,23.10
2019-02-19T00:28:03.630Z,23.20
2019-02-19T00:28:36.501Z,23.20
2019-02-19T00:29:09.555Z,23.20
2019-02-19T00:29:42.547Z,23.30
2019-02-19T00:30:15.571Z,23.40
2019-02-19T00:30:48.587Z,23.25
2019-02-19T00:31:21.646Z,23.00
2019-02-19T00:31:54.635Z,23.30
2019-02-19T00:32:28.664Z,23.30
2019-02-19T00:33:01.589Z,23.38
2019-02-19T00:33:34.620Z,23.07
2019-02-19T00:34:07.546Z,23.40
2019-02-19T00:34:40.489Z,23.10
2019-02-19T00:35:13.559Z,23.20
2019-02-19T00:35:46.840Z,23.27
2019-02-19T00:36:19.847Z,22.93
2019-02-19T00:36:53.082Z,23.15
2019-02-19T00:37:26.209Z,23.32
2019-02-19T00:37:59.013Z,23.18
2019-02-19T00:38:32.012Z,23.30
2019-02-19T00:39:05.412Z,23.20
2019-02-19T00:39:38.302Z,23.38
2019-02-19T00:40:11.449Z,23.47
2019-02-19T00:40:44.538Z,23.12
2019-02-19T00:41:17.353Z,23.20
2019-02-19T00:41:50.241Z,23.00
2019-02-19T00:42:23.790Z,23.15
2019-02-19T00:42:56.699Z,23.10
2019-02-19T00:43:31.347Z,23.32
2019-02-19T00:44:04.330Z,22.85
2019-02-19T00:44:38.599Z,23.32
2019-02-19T00:45:16.666Z,23.00
2019-02-19T00:45:46.405Z,23.02
2019-02-19T00:46:19.359Z,23.20
2019-02-19T00:46:52.346Z,23.60
2019-02-19T00:47:25.209Z,23.27
2019-02-19T00:47:58.376Z,23.07
2019-02-19T00:48:31.291Z,23.02
2019-02-19T00:49:04.335Z,23.12
2019-02-19T00:49:37.183Z,23.20
2019-02-19T00:50:11.201Z,23.10
2019-02-19T00:50:44.122Z,23.47
2019-02-19T00:51:17.107Z,23.07
2019-02-19T00:51:50.048Z,23.02
2019-02-19T00:52:23.569Z,23.27
2019-02-19T00:52:58.194Z,23.10
2019-02-19T00:53:31.133Z,23.02
2019-02-19T00:54:04.089Z,23.40
2019-02-19T00:54:37.051Z,23.10
2019-02-19T00:55:10.373Z,23.15
2019-02-19T00:55:43.498Z,23.57
2019-02-19T00:56:17.663Z,23.40
2019-02-19T00:56:50.751Z,23.25
2019-02-19T00:57:23.781Z,23.10
2019-02-19T00:57:56.640Z,23.27
2019-02-19T00:58:29.639Z,23.57
2019-02-19T00:59:02.779Z,23.50
2019-02-19T00:59:35.751Z,23.50
2019-02-19T01:00:11.741Z,23.70
2019-02-19T01:00:44.801Z,23.52
2019-02-19T01:01:17.855Z,23.50
2019-02-19T01:01:50.837Z,23.42
2019-02-19T01:02:23.976Z,23.22
2019-02-19T01:02:57.053Z,23.42
2019-02-19T01:03:30.157Z,23.60
2019-02-19T01:04:03.587Z,23.65
2019-02-19T01:04:36.629Z,23.50
2019-02-19T01:05:09.801Z,23.90
2019-02-19T01:05:43.177Z,23.65
2019-02-19T01:06:16.214Z,23.50
2019-02-19T01:06:49.251Z,23.67
2019-02-19T01:07:22.219Z,23.62
2019-02-19T01:07:55.289Z,23.50
2019-02-19T01:08:28.281Z,23.35
2019-02-19T01:09:01.303Z,24.00
2019-02-19T01:09:35.743Z,23.87
2019-02-19T01:10:08.879Z,23.73
2019-02-19T01:10:41.905Z,23.80
2019-02-19T01:11:14.785Z,23.47
2019-02-19T01:11:47.815Z,24.02
2019-02-19T01:12:21.091Z,23.70
2019-02-19T01:12:54.067Z,23.45
2019-02-19T01:13:27.093Z,23.32
2019-02-19T01:14:01.227Z,23.30
2019-02-19T01:14:34.235Z,23.62
2019-02-19T01:15:08.524Z,23.70
2019-02-19T01:15:41.485Z,23.60
2019-02-19T01:16:14.369Z,23.55
2019-02-19T01:16:47.419Z,23.50
2019-02-19T01:17:20.452Z,23.60
2019-02-19T01:17:53.427Z,23.55
2019-02-19T01:18:26.487Z,23.57
2019-02-19T01:18:59.561Z,23.65
2019-02-19T01:19:32.481Z,23.52
2019-02-19T01:20:06.614Z,23.47
2019-02-19T01:20:39.719Z,23.70
2019-02-19T01:21:12.649Z,24.00
2019-02-19T01:21:45.609Z,24.15
2019-02-19T01:22:18.695Z,23.80
2019-02-19T01:22:51.779Z,23.65
2019-02-19T01:23:24.735Z,23.80
2019-02-19T01:23:57.801Z,23.70
2019-02-19T01:24:30.725Z,23.55
2019-02-19T01:25:04.125Z,23.70
2019-02-19T01:25:37.117Z,24.12
2019-02-19T01:26:10.390Z,23.80
2019-02-19T01:26:43.689Z,23.52
2019-02-19T01:27:16.473Z,23.98
2019-02-19T01:27:49.533Z,23.90
2019-02-19T01:28:22.431Z,23.90
2019-02-19T01:28:55.339Z,23.52
2019-02-19T01:29:28.222Z,23.92
2019-02-19T01:30:01.076Z,24.30
2019-02-19T01:30:34.143Z,23.67
2019-02-19T01:31:08.010Z,24.00
2019-02-19T01:31:40.885Z,23.80
2019-02-19T01:32:14.611Z,23.87
2019-02-19T01:32:47.484Z,24.32
2019-02-19T01:33:20.393Z,23.67
2019-02-19T01:33:53.276Z,24.35
2019-02-19T01:34:26.112Z,23.47
2019-02-19T01:34:59.024Z,23.77
2019-02-19T01:35:32.056Z,24.32
2019-02-19T01:36:04.972Z,24.05
2019-02-19T01:36:37.883Z,23.73
2019-02-19T01:37:10.767Z,23.65
2019-02-19T01:37:43.626Z,23.87
2019-02-19T01:38:16.433Z,23.80
2019-02-19T01:38:49.371Z,23.50
2019-02-19T01:39:23.357Z,24.23
2019-02-19T01:39:56.205Z,23.98
2019-02-19T01:40:29.073Z,24.52
2019-02-19T01:41:02.099Z,23.70
2019-02-19T01:41:34.889Z,23.92
2019-02-19T01:42:09.459Z,23.85
2019-02-19T01:42:42.351Z,24.00
2019-02-19T01:43:15.253Z,23.95
2019-02-19T01:43:48.263Z,24.12
2019-02-19T01:44:21.127Z,24.12
2019-02-19T01:44:54.135Z,23.75
2019-02-19T01:45:34.019Z,24.43
2019-02-19T01:46:03.743Z,24.25
2019-02-19T01:46:36.762Z,24.18
2019-02-19T01:47:09.743Z,24.05
2019-02-19T01:47:42.759Z,24.27
2019-02-19T01:48:15.861Z,24.00
2019-02-19T01:48:50.539Z,23.98
2019-02-19T01:49:23.543Z,23.70
2019-02-19T01:49:56.593Z,24.30
2019-02-19T01:50:29.577Z,23.92
2019-02-19T01:51:02.632Z,23.60
2019-02-19T01:51:35.487Z,24.20
2019-02-19T01:52:08.749Z,24.02
2019-02-19T01:52:41.651Z,24.05
2019-02-19T01:53:14.632Z,24.12
2019-02-19T01:53:47.414Z,24.63
2019-02-19T01:54:20.563Z,24.65
2019-02-19T01:54:53.372Z,24.52
2019-02-19T01:55:27.466Z,24.60
2019-02-19T01:56:00.359Z,24.87
2019-02-19T01:56:33.370Z,24.32
2019-02-19T01:57:06.359Z,24.32
2019-02-19T01:57:39.405Z,24.37
2019-02-19T01:58:12.412Z,24.50
2019-02-19T01:58:45.451Z,24.50
2019-02-19T01:59:18.356Z,24.12
2019-02-19T01:59:51.366Z,24.12
2019-02-19T02:00:24.367Z,24.07
2019-02-19T02:00:57.444Z,24.30
2019-02-19T02:01:30.564Z,24.45
2019-02-19T02:02:04.761Z,24.75
2019-02-19T02:02:38.782Z,24.43
2019-02-19T02:03:11.844Z,24.45
2019-02-19T02:03:44.818Z,24.52
2019-02-19T02:04:17.741Z,24.70
2019-02-19T02:04:50.546Z,24.35
2019-02-19T02:05:23.585Z,24.65
2019-02-19T02:05:56.485Z,24.40
2019-02-19T02:06:30.436Z,24.27
2019-02-19T02:07:04.554Z,24.70
2019-02-19T02:07:37.756Z,24.52
2019-02-19T02:08:10.534Z,24.35
2019-02-19T02:08:43.497Z,24.63
2019-02-19T02:09:16.308Z,24.47
2019-02-19T02:09:50.926Z,24.60
2019-02-19T02:10:23.720Z,24.35
2019-02-19T02:10:56.546Z,24.60
2019-02-19T02:11:29.430Z,24.60
2019-02-19T02:12:02.472Z,24.57
2019-02-19T02:12:35.472Z,24.65
2019-02-19T02:13:08.548Z,24.90
2019-02-19T02:13:41.445Z,24.67
2019-02-19T02:14:14.454Z,24.12
2019-02-19T02:14:47.442Z,24.85
2019-02-19T02:15:20.452Z,24.25
2019-02-19T02:15:53.264Z,24.87
2019-02-19T02:16:26.214Z,24.32
2019-02-19T02:16:59.127Z,24.20
2019-02-19T02:17:32.135Z,24.67
2019-02-19T02:18:05.012Z,24.60
2019-02-19T02:18:37.866Z,24.47
2019-02-19T02:19:10.856Z,24.85
2019-02-19T02:19:43.914Z,24.82
2019-02-19T02:20:16.875Z,24.77
2019-02-19T02:20:49.920Z,24.50
2019-02-19T02:21:22.930Z,24.50
2019-02-19T02:21:55.864Z,24.52
2019-02-19T02:22:28.771Z,24.25
2019-02-19T02:23:01.780Z,24.47
2019-02-19T02:23:34.670Z,24.85
2019-02-19T02:24:07.626Z,24.67
2019-02-19T02:24:40.513Z,24.75
2019-02-19T02:25:13.441Z,24.50
2019-02-19T02:25:46.864Z,24.95
2019-02-19T02:26:19.914Z,24.60
2019-02-19T02:26:52.914Z,24.70
2019-02-19T02:27:25.859Z,24.70
2019-02-19T02:27:58.722Z,24.20
2019-02-19T02:28:33.298Z,24.52
2019-02-19T02:29:06.300Z,24.72
2019-02-19T02:29:39.222Z,24.23
2019-02-19T02:30:12.218Z,25.02
2019-02-19T02:30:45.270Z,24.92
2019-02-19T02:31:18.142Z,24.80
2019-02-19T02:31:50.948Z,24.60
2019-02-19T02:32:24.938Z,24.40
2019-02-19T02:32:58.119Z,24.63
2019-02-19T02:33:31.046Z,24.43
2019-02-19T02:34:04.076Z,24.30
2019-02-19T02:34:37.059Z,25.30
2019-02-19T02:35:11.412Z,24.77
2019-02-19T02:35:44.506Z,25.05
2019-02-19T02:36:17.613Z,24.15
2019-02-19T02:36:51.600Z,24.65
2019-02-19T02:37:24.629Z,24.40
2019-02-19T02:37:57.471Z,24.90
2019-02-19T02:38:30.470Z,24.40
2019-02-19T02:39:04.353Z,24.75
2019-02-19T02:39:37.326Z,25.08
2019-02-19T02:40:10.334Z,23.92
2019-02-19T02:40:43.288Z,24.40
2019-02-19T02:41:16.104Z,24.35
2019-02-19T02:41:49.060Z,25.15
2019-02-19T02:42:22.336Z,24.60
2019-02-19T02:42:55.249Z,24.27
2019-02-19T02:43:29.243Z,24.57
2019-02-19T02:44:02.296Z,24.20
2019-02-19T02:44:35.285Z,24.40
2019-02-19T02:45:08.520Z,24.35
2019-02-19T02:45:41.414Z,24.43
2019-02-19T02:46:14.351Z,24.72
2019-02-19T02:46:47.368Z,25.12
2019-02-19T02:47:22.041Z,24.52
2019-02-19T02:47:55.034Z,24.50
2019-02-19T02:48:27.890Z,24.30
2019-02-19T02:49:00.683Z,24.45
2019-02-19T02:49:34.745Z,24.65
2019-02-19T02:50:07.850Z,24.10
2019-02-19T02:50:40.682Z,24.65
2019-02-19T02:51:13.674Z,24.50
2019-02-19T02:51:46.709Z,24.77
2019-02-19T02:52:19.499Z,24.65
2019-02-19T02:52:52.344Z,24.18
2019-02-19T02:53:25.120Z,25.02
2019-02-19T02:53:58.155Z,24.20
2019-02-19T02:54:31.157Z,24.80
2019-02-19T02:55:04.280Z,24.18
2019-02-19T02:55:37.202Z,24.10
2019-02-19T02:56:10.138Z,24.37
2019-02-19T02:56:43.036Z,24.30
2019-02-19T02:57:16.094Z,24.30
2019-02-19T02:57:48.987Z,24.90
2019-02-19T02:58:21.992Z,24.50
2019-02-19T02:58:54.881Z,24.30
2019-02-19T02:59:27.925Z,24.15
2019-02-19T03:00:00.908Z,23.90
2019-02-19T03:00:34.174Z,24.18
2019-02-19T03:01:07.129Z,24.43
2019-02-19T03:01:39.916Z,24.47
2019-02-19T03:02:12.910Z,24.43
2019-02-19T03:02:45.992Z,24.02
2019-02-19T03:03:19.190Z,24.18
2019-02-19T03:03:52.234Z,24.43
2019-02-19T03:04:25.321Z,24.82
2019-02-19T03:04:58.170Z,24.47
2019-02-19T03:05:31.305Z,24.30
2019-02-19T03:06:10.176Z,24.90
2019-02-19T03:07:04.296Z,24.10
2019-02-19T03:07:40.717Z,24.50
2019-02-19T03:08:13.933Z,24.10
2019-02-19T03:08:46.878Z,24.40
2019-02-19T03:09:19.978Z,24.50
2019-02-19T03:09:52.921Z,24.60
2019-02-19T03:10:25.935Z,24.50
2019-02-19T03:10:58.947Z,24.27
2019-02-19T03:11:31.933Z,24.40
2019-02-19T03:12:04.955Z,24.65
2019-02-19T03:12:37.869Z,24.30
2019-02-19T03:13:10.761Z,24.47
2019-02-19T03:13:43.742Z,24.02
2019-02-19T03:14:16.677Z,24.18
2019-02-19T03:14:51.251Z,24.50
2019-02-19T03:15:24.343Z,24.70
2019-02-19T03:16:02.553Z,24.43
2019-02-19T03:16:32.339Z,24.50
2019-02-19T03:17:05.509Z,24.23
2019-02-19T03:17:38.581Z,24.37
2019-02-19T03:18:11.411Z,24.52
2019-02-19T03:18:44.438Z,24.10
2019-02-19T03:19:17.383Z,24.52
2019-02-19T03:19:50.327Z,24.37
2019-02-19T03:20:23.277Z,24.90
2019-02-19T03:20:57.320Z,24.52
2019-02-19T03:21:30.313Z,24.50
2019-02-19T03:22:03.267Z,24.45
2019-02-19T03:22:36.493Z,24.70
2019-02-19T03:23:09.413Z,24.70
2019-02-19T03:23:42.256Z,24.40
2019-02-19T03:24:15.415Z,24.80
2019-02-19T03:24:48.480Z,24.07
2019-02-19T03:25:21.551Z,24.65
2019-02-19T03:25:54.542Z,24.98
2019-02-19T03:26:27.504Z,24.50
2019-02-19T03:27:00.565Z,25.70
2019-02-19T03:27:33.536Z,24.50
2019-02-19T03:28:06.499Z,24.40
2019-02-19T03:28:39.372Z,24.67
2019-02-19T03:29:12.308Z,24.32
2019-02-19T03:29:45.303Z,24.90
2019-02-19T03:30:18.335Z,24.40
2019-02-19T03:30:51.180Z,24.27
2019-02-19T03:31:24.014Z,24.92
2019-02-19T03:31:56.926Z,24.10
2019-02-19T03:32:29.928Z,24.37
2019-02-19T03:33:03.063Z,24.57
2019-02-19T03:33:35.853Z,24.50
2019-02-19T03:34:08.754Z,24.75
2019-02-19T03:34:41.657Z,24.75
2019-02-19T03:35:14.521Z,24.23
2019-02-19T03:35:47.444Z,24.72
2019-02-19T03:36:20.479Z,24.00
2019-02-19T03:36:53.370Z,24.35
2019-02-19T03:37:26.219Z,24.40
2019-02-19T03:37:59.255Z,23.98
2019-02-19T03:38:32.210Z,24.30
2019-02-19T03:39:05.514Z,24.37
2019-02-19T03:39:39.735Z,24.23
2019-02-19T03:40:12.713Z,24.55
2019-02-19T03:40:45.798Z,24.98
2019-02-19T03:41:18.779Z,24.43
2019-02-19T03:41:51.795Z,24.57
2019-02-19T03:42:24.713Z,24.52
2019-02-19T03:42:57.718Z,24.63
2019-02-19T03:43:30.617Z,23.87
2019-02-19T03:44:03.741Z,23.75
2019-02-19T03:44:36.739Z,24.60
2019-02-19T03:45:10.505Z,24.50
2019-02-19T03:45:43.295Z,24.63
2019-02-19T03:46:16.228Z,24.35
2019-02-19T03:46:50.326Z,24.60
2019-02-19T03:47:23.184Z,24.30
2019-02-19T03:47:56.165Z,24.65
2019-02-19T03:48:29.157Z,24.50
2019-02-19T03:49:02.077Z,24.50
2019-02-19T03:49:35.393Z,24.37
2019-02-19T03:50:08.401Z,24.47
2019-02-19T03:50:41.458Z,24.50
2019-02-19T03:51:14.453Z,24.25
2019-02-19T03:51:47.313Z,23.95
2019-02-19T03:52:20.207Z,24.47
2019-02-19T03:52:53.140Z,24.47
2019-02-19T03:53:25.927Z,24.50
2019-02-19T03:53:59.208Z,24.67
2019-02-19T03:54:32.383Z,24.60
2019-02-19T03:55:06.476Z,24.87
2019-02-19T03:55:39.471Z,24.15
2019-02-19T03:56:12.601Z,24.20
2019-02-19T03:56:45.489Z,24.18
2019-02-19T03:57:18.550Z,24.72
2019-02-19T03:57:51.333Z,24.20
2019-02-19T03:58:25.907Z,24.47
2019-02-19T03:58:58.931Z,24.18
2019-02-19T03:59:31.959Z,24.20
2019-02-19T04:00:05.100Z,24.27
2019-02-19T04:00:38.145Z,24.72
2019-02-19T04:01:11.157Z,23.92
2019-02-19T04:01:45.145Z,24.23
2019-02-19T04:02:18.158Z,24.00
2019-02-19T04:02:51.093Z,24.32
2019-02-19T04:03:24.100Z,24.52
2019-02-19T04:03:57.234Z,23.92
2019-02-19T04:04:30.228Z,24.40
2019-02-19T04:05:04.888Z,23.87
2019-02-19T04:05:37.893Z,24.00
2019-02-19T04:06:10.956Z,24.52
2019-02-19T04:06:43.929Z,24.98
2019-02-19T04:07:17.349Z,24.20
2019-02-19T04:07:50.241Z,24.10
2019-02-19T04:08:23.289Z,24.57
2019-02-19T04:08:56.174Z,24.07
2019-02-19T04:09:29.401Z,24.65
2019-02-19T04:10:02.440Z,23.45
2019-02-19T04:10:35.581Z,24.47
2019-02-19T04:11:08.491Z,24.15
2019-02-19T04:11:41.553Z,24.63
2019-02-19T04:12:14.532Z,24.40
2019-02-19T04:12:47.356Z,24.10
2019-02-19T04:13:20.335Z,24.15
2019-02-19T04:13:53.441Z,24.05
2019-02-19T04:14:26.546Z,23.60
2019-02-19T04:14:59.527Z,23.98
2019-02-19T04:15:32.667Z,23.67
2019-02-19T04:16:05.572Z,24.15
2019-02-19T04:16:38.665Z,24.23
2019-02-19T04:17:11.738Z,24.07
2019-02-19T04:17:44.743Z,23.87
2019-02-19T04:18:17.676Z,23.95
2019-02-19T04:18:50.607Z,24.45
2019-02-19T04:19:23.630Z,24.72
2019-02-19T04:19:56.624Z,24.37
2019-02-19T04:20:29.537Z,24.10
2019-02-19T04:21:02.552Z,24.32
2019-02-19T04:21:35.684Z,24.87
2019-02-19T04:22:08.605Z,24.52
2019-02-19T04:22:41.519Z,24.52
2019-02-19T04:23:14.285Z,23.92
2019-02-19T04:23:47.145Z,23.80
2019-02-19T04:24:20.176Z,24.15
2019-02-19T04:24:53.492Z,23.75
2019-02-19T04:25:26.377Z,24.47
2019-02-19T04:25:59.265Z,23.83
2019-02-19T04:26:33.937Z,24.10
2019-02-19T04:27:06.896Z,24.18
2019-02-19T04:27:39.808Z,24.43
2019-02-19T04:28:12.784Z,23.92
2019-02-19T04:28:46.051Z,23.75
2019-02-19T04:29:18.857Z,24.45
2019-02-19T04:29:51.788Z,24.20
2019-02-19T04:30:24.692Z,24.25
2019-02-19T04:30:57.677Z,24.15
2019-02-19T04:31:31.834Z,23.73
2019-02-19T04:32:04.997Z,24.72
2019-02-19T04:32:37.993Z,24.32
2019-02-19T04:33:11.177Z,24.00
2019-02-19T04:33:44.058Z,24.30
2019-02-19T04:34:17.101Z,24.05
2019-02-19T04:34:50.107Z,24.10
2019-02-19T04:35:23.049Z,24.52
2019-02-19T04:35:55.951Z,24.35
2019-02-19T04:36:29.123Z,24.10
2019-02-19T04:37:02.022Z,24.02
2019-02-19T04:37:34.994Z,24.12
2019-02-19T04:38:08.024Z,24.10
2019-02-19T04:38:41.030Z,24.12
2019-02-19T04:39:13.938Z,23.92
2019-02-19T04:39:46.984Z,24.10
2019-02-19T04:40:19.988Z,24.02
2019-02-19T04:40:52.922Z,24.07
2019-02-19T04:41:25.707Z,24.35
2019-02-19T04:41:58.647Z,24.60
2019-02-19T04:42:31.548Z,24.27
2019-02-19T04:43:04.630Z,23.90
2019-02-19T04:43:37.404Z,24.12
2019-02-19T04:44:10.349Z,24.00
2019-02-19T04:44:43.273Z,24.65
2019-02-19T04:45:16.307Z,23.92
2019-02-19T04:45:49.395Z,23.98
2019-02-19T04:46:31.141Z,24.12
2019-02-19T04:46:57.267Z,23.90
2019-02-19T04:47:30.193Z,23.70
2019-02-19T04:48:03.113Z,23.60
2019-02-19T04:48:36.044Z,24.35
2019-02-19T04:49:08.833Z,23.57
2019-02-19T04:49:41.879Z,24.30
2019-02-19T04:50:15.867Z,23.80
2019-02-19T04:50:48.973Z,24.30
2019-02-19T04:51:21.767Z,24.20
2019-02-19T04:51:54.865Z,23.98
2019-02-19T04:52:27.854Z,23.62
2019-02-19T04:53:00.662Z,23.87
2019-02-19T04:53:33.564Z,24.25
2019-02-19T04:54:06.406Z,24.27
2019-02-19T04:54:39.191Z,24.23
2019-02-19T04:55:12.205Z,24.92
2019-02-19T04:55:45.119Z,24.30
2019-02-19T04:56:18.006Z,24.30
2019-02-19T04:56:50.896Z,23.98
2019-02-19T04:57:23.790Z,24.25
2019-02-19T04:57:56.687Z,24.27
2019-02-19T04:58:29.564Z,24.27
2019-02-19T04:59:02.404Z,24.60
2019-02-19T04:59:35.312Z,23.90
2019-02-19T05:00:11.776Z,24.43
2019-02-19T05:00:44.796Z,24.18
2019-02-19T05:01:17.796Z,24.35
2019-02-19T05:01:50.680Z,24.07
2019-02-19T05:02:23.710Z,24.32
2019-02-19T05:02:56.622Z,25.17
2019-02-19T05:03:30.959Z,24.30
2019-02-19T05:04:03.883Z,24.40
2019-02-19T05:04:36.702Z,24.43
2019-02-19T05:05:09.703Z,24.63
2019-02-19T05:05:42.632Z,24.45
2019-02-19T05:06:15.422Z,24.00
2019-02-19T05:06:48.328Z,24.20
2019-02-19T05:07:21.270Z,24.47
2019-02-19T05:07:54.136Z,24.12
2019-02-19T05:08:27.159Z,24.20
2019-02-19T05:09:00.103Z,24.12
2019-02-19T05:09:32.876Z,24.32
2019-02-19T05:10:06.304Z,24.02
2019-02-19T05:10:39.213Z,24.43
2019-02-19T05:11:12.110Z,23.70
2019-02-19T05:11:45.123Z,24.00
2019-02-19T05:12:18.260Z,24.35
2019-02-19T05:12:51.067Z,24.57
2019-02-19T05:13:23.963Z,24.50
2019-02-19T05:13:56.868Z,24.37
2019-02-19T05:14:29.892Z,24.23
2019-02-19T05:15:04.344Z,24.60
2019-02-19T05:15:37.261Z,24.25
2019-02-19T05:16:10.283Z,24.40
2019-02-19T05:16:43.267Z,24.30
2019-02-19T05:17:16.441Z,24.50
2019-02-19T05:17:49.493Z,24.00
2019-02-19T05:18:23.976Z,24.50
2019-02-19T05:18:56.897Z,24.18
2019-02-19T05:19:29.966Z,24.10
2019-02-19T05:20:03.828Z,24.25
2019-02-19T05:20:36.751Z,23.83
2019-02-19T05:21:09.944Z,24.25
2019-02-19T05:21:42.981Z,24.32
2019-02-19T05:22:15.896Z,23.92
2019-02-19T05:22:48.830Z,24.18
2019-02-19T05:23:23.496Z,24.00
2019-02-19T05:23:56.628Z,24.10
2019-02-19T05:24:29.444Z,23.73
2019-02-19T05:25:02.561Z,24.23
2019-02-19T05:25:35.577Z,24.40
2019-02-19T05:26:10.186Z,23.95
2019-02-19T05:26:43.178Z,24.32
2019-02-19T05:27:16.318Z,23.65
2019-02-19T05:27:49.312Z,24.32
2019-02-19T05:28:22.270Z,24.00
2019-02-19T05:28:55.179Z,24.30
2019-02-19T05:29:28.247Z,24.12
2019-02-19T05:30:01.148Z,24.35
2019-02-19T05:30:34.091Z,24.00
2019-02-19T05:31:07.100Z,24.47
2019-02-19T05:31:40.157Z,24.30
2019-02-19T05:32:13.046Z,24.35
2019-02-19T05:32:46.107Z,24.40
2019-02-19T05:33:19.090Z,24.10
2019-02-19T05:33:51.898Z,24.07
2019-02-19T05:34:24.784Z,24.52
2019-02-19T05:34:57.722Z,24.07
2019-02-19T05:35:30.630Z,23.95
2019-02-19T05:36:03.709Z,24.50
2019-02-19T05:36:36.690Z,24.57
2019-02-19T05:37:09.646Z,24.75
2019-02-19T05:37:42.628Z,24.45
2019-02-19T05:38:15.466Z,24.45
2019-02-19T05:38:48.514Z,24.18
2019-02-19T05:39:21.666Z,24.40
2019-02-19T05:39:54.702Z,24.23
2019-02-19T05:40:27.686Z,24.52
2019-02-19T05:41:00.675Z,24.50
2019-02-19T05:41:33.611Z,24.18
2019-02-19T05:42:06.535Z,24.20
2019-02-19T05:42:39.584Z,24.23
2019-02-19T05:43:12.587Z,24.27
2019-02-19T05:43:45.532Z,24.40
2019-02-19T05:44:18.562Z,25.05
2019-02-19T05:44:51.918Z,24.05
2019-02-19T05:45:24.991Z,24.40
2019-02-19T05:45:57.828Z,24.50
2019-02-19T05:46:30.673Z,23.77
2019-02-19T05:47:03.762Z,24.07
2019-02-19T05:47:36.726Z,24.02
2019-02-19T05:48:09.712Z,24.18
2019-02-19T05:48:42.708Z,24.30
2019-02-19T05:49:15.606Z,24.25
2019-02-19T05:49:48.391Z,24.65
2019-02-19T05:50:21.376Z,24.43
2019-02-19T05:50:54.490Z,24.00
2019-02-19T05:51:29.069Z,24.60
2019-02-19T05:52:02.000Z,24.15
2019-02-19T05:52:34.960Z,24.15
2019-02-19T05:53:08.012Z,23.95
2019-02-19T05:53:40.910Z,24.23
2019-02-19T05:54:13.942Z,24.27
2019-02-19T05:54:46.835Z,23.90
2019-02-19T05:55:19.901Z,24.40
2019-02-19T05:55:52.786Z,23.75
2019-02-19T05:56:29.020Z,24.18
2019-02-19T05:57:02.029Z,24.15
2019-02-19T05:57:35.074Z,23.98
2019-02-19T05:58:08.072Z,24.00
2019-02-19T05:58:41.061Z,24.60
2019-02-19T05:59:13.832Z,24.23
2019-02-19T05:59:46.782Z,24.32
2019-02-19T06:00:19.655Z,24.55
2019-02-19T06:00:52.589Z,23.80
2019-02-19T06:01:25.565Z,24.07
2019-02-19T06:01:58.505Z,23.70
2019-02-19T06:02:31.391Z,24.10
2019-02-19T06:03:04.320Z,24.07
2019-02-19T06:03:37.119Z,24.10
2019-02-19T06:04:10.071Z,24.47
2019-02-19T06:04:43.083Z,23.98
2019-02-19T06:05:16.014Z,23.50
2019-02-19T06:05:49.001Z,24.05
2019-02-19T06:06:22.051Z,24.50
2019-02-19T06:06:54.939Z,24.30
2019-02-19T06:07:27.877Z,24.05
2019-02-19T06:08:00.953Z,24.15
2019-02-19T06:08:33.785Z,23.83
2019-02-19T06:09:06.696Z,23.90
2019-02-19T06:09:39.772Z,24.20
2019-02-19T06:10:12.782Z,24.65
2019-02-19T06:10:45.698Z,24.20
2019-02-19T06:11:18.804Z,24.40
2019-02-19T06:11:51.826Z,24.30
2019-02-19T06:12:25.105Z,24.02
2019-02-19T06:12:58.059Z,24.15
2019-02-19T06:13:31.032Z,24.37
2019-02-19T06:14:03.949Z,24.30
2019-02-19T06:14:36.985Z,24.25
2019-02-19T06:15:10.467Z,23.90
2019-02-19T06:15:43.355Z,24.10
2019-02-19T06:16:16.404Z,24.60
2019-02-19T06:16:58.075Z,24.80
2019-02-19T06:17:24.226Z,24.15
2019-02-19T06:17:57.231Z,24.10
2019-02-19T06:18:30.272Z,23.57
2019-02-19T06:19:03.179Z,24.23
2019-02-19T06:19:36.203Z,24.20
2019-02-19T06:20:09.389Z,24.27
2019-02-19T06:20:42.224Z,24.10
2019-02-19T06:21:15.322Z,24.32
2019-02-19T06:21:48.241Z,23.98
2019-02-19T06:22:21.125Z,24.12
2019-02-19T06:22:53.959Z,24.10
2019-02-19T06:23:27.060Z,24.05
2019-02-19T06:24:00.019Z,24.20
2019-02-19T06:24:32.955Z,23.92
2019-02-19T06:25:07.387Z,24.20
2019-02-19T06:25:40.412Z,24.15
2019-02-19T06:26:13.381Z,24.05
2019-02-19T06:26:46.513Z,24.00
2019-02-19T06:27:19.541Z,24.02
2019-02-19T06:27:52.499Z,23.73
2019-02-19T06:28:25.489Z,24.98
2019-02-19T06:28:58.449Z,24.23
2019-02-19T06:29:31.419Z,24.80
2019-02-19T06:30:08.470Z,24.02
2019-02-19T06:30:41.558Z,23.80
2019-02-19T06:31:14.607Z,24.20
2019-02-19T06:31:47.667Z,24.25
2019-02-19T06:32:20.737Z,24.40
2019-02-19T06:32:53.689Z,24.52
2019-02-19T06:33:26.549Z,24.05
2019-02-19T06:33:59.601Z,24.10
2019-02-19T06:34:32.677Z,24.40
2019-02-19T06:35:06.023Z,25.05
2019-02-19T06:35:39.187Z,23.90
2019-02-19T06:36:12.243Z,24.40
2019-02-19T06:36:45.552Z,23.83
2019-02-19T06:37:18.477Z,24.32
2019-02-19T06:37:53.240Z,24.25
2019-02-19T06:38:26.099Z,24.52
2019-02-19T06:38:59.015Z,24.27
2019-02-19T06:39:32.139Z,24.55
2019-02-19T06:40:05.815Z,23.83
2019-02-19T06:40:38.633Z,23.92
2019-02-19T06:41:11.684Z,24.60
2019-02-19T06:41:44.633Z,24.57
2019-02-19T06:42:17.675Z,24.70
2019-02-19T06:42:50.739Z,24.57
2019-02-19T06:43:23.675Z,24.35
2019-02-19T06:43:56.635Z,24.10
2019-02-19T06:44:29.591Z,24.12
2019-02-19T06:45:02.911Z,24.25
2019-02-19T06:45:36.136Z,24.20
2019-02-19T06:46:09.182Z,24.18
2019-02-19T06:46:42.215Z,24.05
2019-02-19T06:47:15.183Z,24.23
2019-02-19T06:47:48.035Z,24.52
2019-02-19T06:48:21.593Z,23.90
2019-02-19T06:48:54.551Z,23.70
2019-02-19T06:49:27.440Z,24.23
2019-02-19T06:50:00.471Z,24.82
2019-02-19T06:50:33.449Z,24.55
2019-02-19T06:51:06.459Z,23.67
2019-02-19T06:51:39.399Z,23.92
2019-02-19T06:52:12.439Z,24.47
2019-02-19T06:52:45.491Z,24.12
2019-02-19T06:53:18.514Z,23.50
2019-02-19T06:53:52.577Z,24.07
2019-02-19T06:54:25.505Z,24.15
2019-02-19T06:54:58.353Z,23.87
2019-02-19T06:55:31.784Z,24.20
2019-02-19T06:56:04.707Z,24.65
2019-02-19T06:56:37.649Z,24.75
2019-02-19T06:57:10.768Z,24.30
2019-02-19T06:57:43.698Z,24.65
2019-02-19T06:58:17.113Z,24.25
2019-02-19T06:58:50.159Z,24.43
2019-02-19T06:59:23.151Z,24.35
2019-02-19T06:59:56.134Z,24.60
2019-02-19T07:00:30.741Z,24.25
2019-02-19T07:01:03.789Z,23.73
2019-02-19T07:01:53.512Z,23.90
2019-02-19T07:02:54.914Z,24.05
2019-02-19T07:03:35.589Z,24.27
2019-02-19T07:04:15.343Z,23.83
2019-02-19T07:04:52.005Z,23.95
2019-02-19T07:05:25.433Z,24.20
2019-02-19T07:05:58.502Z,23.77
2019-02-19T07:06:31.474Z,24.07
2019-02-19T07:07:04.686Z,24.00
2019-02-19T07:07:37.653Z,23.75
2019-02-19T07:08:10.659Z,24.02